sensor_id;sensor_type;location;lat;lon;timestamp;P1;durP1;ratioP1;P2;durP2;ratioP2
13303;SDS011;6720;51.958;4.540;2023-08-06T00:02:16;15.30;;;13.50;;
13303;SDS011;6720;51.958;4.540;2023-08-06T00:04:41;17.23;;;14.40;;
13303;SDS011;6720;51.958;4.540;2023-08-06T00:07:07;16.60;;;14.17;;
13303;SDS011;6720;51.958;4.540;2023-08-06T00:09:32;19.00;;;15.80;;
13303;SDS011;6720;51.958;4.540;2023-08-06T00:11:57;14.93;;;13.40;;
13303;SDS011;6720;51.958;4.540;2023-08-06T00:14:23;17.07;;;13.97;;
13303;SDS011;6720;51.958;4.540;2023-08-06T00:16:48;15.77;;;14.17;;
13303;SDS011;6720;51.958;4.540;2023-08-06T00:19:14;15.70;;;13.93;;
13303;SDS011;6720;51.958;4.540;2023-08-06T00:21:39;18.67;;;15.20;;
13303;SDS011;6720;51.958;4.540;2023-08-06T00:24:04;18.10;;;14.00;;
13303;SDS011;6720;51.958;4.540;2023-08-06T00:26:30;15.37;;;13.17;;
13303;SDS011;6720;51.958;4.540;2023-08-06T00:28:55;18.17;;;14.10;;
13303;SDS011;6720;51.958;4.540;2023-08-06T00:31:21;16.00;;;13.50;;
13303;SDS011;6720;51.958;4.540;2023-08-06T00:33:46;16.90;;;14.73;;
13303;SDS011;6720;51.958;4.540;2023-08-06T00:36:11;18.30;;;14.60;;
13303;SDS011;6720;51.958;4.540;2023-08-06T00:38:37;15.83;;;12.90;;
13303;SDS011;6720;51.958;4.540;2023-08-06T00:41:02;15.60;;;13.87;;
13303;SDS011;6720;51.958;4.540;2023-08-06T00:43:28;20.63;;;18.40;;
13303;SDS011;6720;51.958;4.540;2023-08-06T00:45:53;14.70;;;13.00;;
13303;SDS011;6720;51.958;4.540;2023-08-06T00:48:19;14.70;;;12.97;;
13303;SDS011;6720;51.958;4.540;2023-08-06T00:50:45;18.47;;;14.63;;
13303;SDS011;6720;51.958;4.540;2023-08-06T00:53:11;19.50;;;14.27;;
13303;SDS011;6720;51.958;4.540;2023-08-06T00:55:36;15.20;;;13.57;;
13303;SDS011;6720;51.958;4.540;2023-08-06T00:58:02;15.33;;;13.23;;
13303;SDS011;6720;51.958;4.540;2023-08-06T01:00:28;18.40;;;13.80;;
13303;SDS011;6720;51.958;4.540;2023-08-06T01:02:53;15.00;;;12.90;;
13303;SDS011;6720;51.958;4.540;2023-08-06T01:05:20;14.87;;;13.03;;
13303;SDS011;6720;51.958;4.540;2023-08-06T01:13:48;17.47;;;13.37;;
13303;SDS011;6720;51.958;4.540;2023-08-06T01:16:20;15.97;;;13.60;;
13303;SDS011;6720;51.958;4.540;2023-08-06T01:18:49;14.87;;;13.27;;
13303;SDS011;6720;51.958;4.540;2023-08-06T01:21:15;17.47;;;14.00;;
13303;SDS011;6720;51.958;4.540;2023-08-06T01:23:42;17.97;;;14.43;;
13303;SDS011;6720;51.958;4.540;2023-08-06T01:31:18;16.13;;;13.27;;
13303;SDS011;6720;51.958;4.540;2023-08-06T01:33:49;14.87;;;13.23;;
13303;SDS011;6720;51.958;4.540;2023-08-06T01:36:15;15.67;;;13.63;;
13303;SDS011;6720;51.958;4.540;2023-08-06T01:38:42;20.93;;;15.50;;
13303;SDS011;6720;51.958;4.540;2023-08-06T01:41:08;18.97;;;14.80;;
13303;SDS011;6720;51.958;4.540;2023-08-06T01:43:33;17.97;;;15.20;;
13303;SDS011;6720;51.958;4.540;2023-08-06T01:45:58;19.50;;;14.20;;
13303;SDS011;6720;51.958;4.540;2023-08-06T01:48:24;17.90;;;14.90;;
13303;SDS011;6720;51.958;4.540;2023-08-06T01:50:50;16.90;;;15.10;;
13303;SDS011;6720;51.958;4.540;2023-08-06T01:53:15;17.23;;;15.37;;
13303;SDS011;6720;51.958;4.540;2023-08-06T01:55:40;16.37;;;14.60;;
13303;SDS011;6720;51.958;4.540;2023-08-06T01:58:06;16.87;;;13.97;;
13303;SDS011;6720;51.958;4.540;2023-08-06T02:00:31;17.87;;;14.23;;
13303;SDS011;6720;51.958;4.540;2023-08-06T02:02:57;17.13;;;14.80;;
13303;SDS011;6720;51.958;4.540;2023-08-06T02:05:22;22.57;;;16.23;;
13303;SDS011;6720;51.958;4.540;2023-08-06T02:07:47;18.67;;;16.10;;
13303;SDS011;6720;51.958;4.540;2023-08-06T02:10:13;20.40;;;14.67;;
13303;SDS011;6720;51.958;4.540;2023-08-06T02:12:38;22.37;;;16.27;;
13303;SDS011;6720;51.958;4.540;2023-08-06T02:15:04;18.47;;;15.50;;
13303;SDS011;6720;51.958;4.540;2023-08-06T02:17:30;18.10;;;15.50;;
13303;SDS011;6720;51.958;4.540;2023-08-06T02:19:55;20.00;;;16.23;;
13303;SDS011;6720;51.958;4.540;2023-08-06T02:22:21;20.63;;;16.90;;
13303;SDS011;6720;51.958;4.540;2023-08-06T02:24:48;20.47;;;16.33;;
13303;SDS011;6720;51.958;4.540;2023-08-06T02:27:14;19.73;;;16.37;;
13303;SDS011;6720;51.958;4.540;2023-08-06T02:29:40;21.03;;;17.00;;
13303;SDS011;6720;51.958;4.540;2023-08-06T02:32:06;20.97;;;17.00;;
13303;SDS011;6720;51.958;4.540;2023-08-06T02:34:32;18.77;;;16.40;;
13303;SDS011;6720;51.958;4.540;2023-08-06T02:36:57;20.97;;;17.97;;
13303;SDS011;6720;51.958;4.540;2023-08-06T02:39:22;20.87;;;17.73;;
13303;SDS011;6720;51.958;4.540;2023-08-06T02:41:48;23.77;;;19.13;;
13303;SDS011;6720;51.958;4.540;2023-08-06T02:44:13;24.80;;;20.90;;
13303;SDS011;6720;51.958;4.540;2023-08-06T02:46:39;21.17;;;18.50;;
13303;SDS011;6720;51.958;4.540;2023-08-06T02:49:04;24.27;;;19.47;;
13303;SDS011;6720;51.958;4.540;2023-08-06T02:51:29;25.47;;;18.40;;
13303;SDS011;6720;51.958;4.540;2023-08-06T02:53:55;21.30;;;18.10;;
13303;SDS011;6720;51.958;4.540;2023-08-06T02:56:20;25.77;;;19.40;;
13303;SDS011;6720;51.958;4.540;2023-08-06T02:58:46;23.40;;;18.80;;
13303;SDS011;6720;51.958;4.540;2023-08-06T03:01:11;22.37;;;19.30;;
13303;SDS011;6720;51.958;4.540;2023-08-06T03:03:37;21.50;;;17.80;;
13303;SDS011;6720;51.958;4.540;2023-08-06T03:06:02;23.27;;;19.40;;
13303;SDS011;6720;51.958;4.540;2023-08-06T03:08:28;19.90;;;17.17;;
13303;SDS011;6720;51.958;4.540;2023-08-06T03:10:53;15.70;;;13.10;;
13303;SDS011;6720;51.958;4.540;2023-08-06T03:13:19;12.47;;;11.10;;
13303;SDS011;6720;51.958;4.540;2023-08-06T03:15:51;10.13;;;9.13;;
13303;SDS011;6720;51.958;4.540;2023-08-06T03:18:19;11.07;;;10.00;;
13303;SDS011;6720;51.958;4.540;2023-08-06T03:20:44;9.03;;;7.13;;
13303;SDS011;6720;51.958;4.540;2023-08-06T03:23:10;4.37;;;3.97;;
13303;SDS011;6720;51.958;4.540;2023-08-06T03:25:35;5.33;;;4.40;;
13303;SDS011;6720;51.958;4.540;2023-08-06T03:28:02;6.47;;;3.83;;
13303;SDS011;6720;51.958;4.540;2023-08-06T03:30:27;9.43;;;6.90;;
13303;SDS011;6720;51.958;4.540;2023-08-06T03:32:53;7.40;;;3.03;;
13303;SDS011;6720;51.958;4.540;2023-08-06T03:35:18;10.33;;;4.00;;
13303;SDS011;6720;51.958;4.540;2023-08-06T03:37:44;9.63;;;5.77;;
13303;SDS011;6720;51.958;4.540;2023-08-06T03:40:09;4.53;;;3.33;;
13303;SDS011;6720;51.958;4.540;2023-08-06T03:42:35;4.20;;;3.57;;
13303;SDS011;6720;51.958;4.540;2023-08-06T03:45:00;5.90;;;4.30;;
13303;SDS011;6720;51.958;4.540;2023-08-06T03:47:26;5.10;;;4.60;;
13303;SDS011;6720;51.958;4.540;2023-08-06T03:49:51;6.60;;;5.30;;
13303;SDS011;6720;51.958;4.540;2023-08-06T03:52:17;8.43;;;5.53;;
13303;SDS011;6720;51.958;4.540;2023-08-06T03:54:42;10.73;;;7.33;;
13303;SDS011;6720;51.958;4.540;2023-08-06T03:57:08;8.50;;;7.60;;
13303;SDS011;6720;51.958;4.540;2023-08-06T03:59:34;14.27;;;12.13;;
13303;SDS011;6720;51.958;4.540;2023-08-06T04:01:59;11.60;;;10.27;;
13303;SDS011;6720;51.958;4.540;2023-08-06T04:04:24;14.67;;;11.70;;
13303;SDS011;6720;51.958;4.540;2023-08-06T04:06:50;13.70;;;10.10;;
13303;SDS011;6720;51.958;4.540;2023-08-06T04:09:15;10.73;;;8.13;;
13303;SDS011;6720;51.958;4.540;2023-08-06T04:11:41;8.40;;;7.17;;
13303;SDS011;6720;51.958;4.540;2023-08-06T04:14:06;9.10;;;6.87;;
13303;SDS011;6720;51.958;4.540;2023-08-06T04:16:32;8.23;;;6.37;;
13303;SDS011;6720;51.958;4.540;2023-08-06T04:18:57;8.97;;;6.90;;
13303;SDS011;6720;51.958;4.540;2023-08-06T04:21:23;11.70;;;7.07;;
13303;SDS011;6720;51.958;4.540;2023-08-06T04:23:48;8.03;;;5.87;;
13303;SDS011;6720;51.958;4.540;2023-08-06T04:26:14;8.23;;;5.50;;
13303;SDS011;6720;51.958;4.540;2023-08-06T04:28:39;8.73;;;5.97;;
13303;SDS011;6720;51.958;4.540;2023-08-06T04:31:05;8.40;;;5.80;;
13303;SDS011;6720;51.958;4.540;2023-08-06T04:33:30;8.90;;;5.87;;
13303;SDS011;6720;51.958;4.540;2023-08-06T04:35:56;11.70;;;5.93;;
13303;SDS011;6720;51.958;4.540;2023-08-06T04:38:23;11.77;;;6.57;;
13303;SDS011;6720;51.958;4.540;2023-08-06T04:40:49;10.23;;;6.90;;
13303;SDS011;6720;51.958;4.540;2023-08-06T04:43:14;11.23;;;5.90;;
13303;SDS011;6720;51.958;4.540;2023-08-06T04:45:45;9.43;;;6.20;;
13303;SDS011;6720;51.958;4.540;2023-08-06T04:48:12;10.77;;;6.90;;
13303;SDS011;6720;51.958;4.540;2023-08-06T04:50:37;8.80;;;6.57;;
13303;SDS011;6720;51.958;4.540;2023-08-06T04:53:03;10.97;;;5.90;;
13303;SDS011;6720;51.958;4.540;2023-08-06T04:55:28;9.47;;;6.03;;
13303;SDS011;6720;51.958;4.540;2023-08-06T04:57:53;8.17;;;6.00;;
13303;SDS011;6720;51.958;4.540;2023-08-06T05:00:19;7.63;;;6.37;;
13303;SDS011;6720;51.958;4.540;2023-08-06T05:02:44;8.73;;;5.93;;
13303;SDS011;6720;51.958;4.540;2023-08-06T05:05:09;9.50;;;6.40;;
13303;SDS011;6720;51.958;4.540;2023-08-06T05:07:35;12.20;;;6.60;;
13303;SDS011;6720;51.958;4.540;2023-08-06T05:10:00;10.30;;;6.40;;
13303;SDS011;6720;51.958;4.540;2023-08-06T05:12:26;11.20;;;6.80;;
13303;SDS011;6720;51.958;4.540;2023-08-06T05:14:51;9.60;;;6.60;;
13303;SDS011;6720;51.958;4.540;2023-08-06T05:17:16;8.53;;;6.93;;
13303;SDS011;6720;51.958;4.540;2023-08-06T05:19:42;14.33;;;8.50;;
13303;SDS011;6720;51.958;4.540;2023-08-06T05:22:07;8.60;;;7.50;;
13303;SDS011;6720;51.958;4.540;2023-08-06T05:24:33;10.23;;;6.87;;
13303;SDS011;6720;51.958;4.540;2023-08-06T05:26:58;9.37;;;7.50;;
13303;SDS011;6720;51.958;4.540;2023-08-06T05:29:23;11.67;;;7.30;;
13303;SDS011;6720;51.958;4.540;2023-08-06T05:31:49;11.93;;;7.33;;
13303;SDS011;6720;51.958;4.540;2023-08-06T05:34:14;9.40;;;7.17;;
13303;SDS011;6720;51.958;4.540;2023-08-06T05:36:40;11.57;;;7.50;;
13303;SDS011;6720;51.958;4.540;2023-08-06T05:39:05;10.83;;;7.27;;
13303;SDS011;6720;51.958;4.540;2023-08-06T05:41:30;8.17;;;6.77;;
13303;SDS011;6720;51.958;4.540;2023-08-06T05:43:56;12.33;;;8.73;;
13303;SDS011;6720;51.958;4.540;2023-08-06T05:46:21;12.57;;;7.50;;
13303;SDS011;6720;51.958;4.540;2023-08-06T05:48:47;11.83;;;7.83;;
13303;SDS011;6720;51.958;4.540;2023-08-06T05:51:12;11.30;;;6.70;;
13303;SDS011;6720;51.958;4.540;2023-08-06T05:53:38;11.27;;;6.57;;
13303;SDS011;6720;51.958;4.540;2023-08-06T05:56:03;12.33;;;7.07;;
13303;SDS011;6720;51.958;4.540;2023-08-06T05:58:29;9.33;;;5.43;;
13303;SDS011;6720;51.958;4.540;2023-08-06T06:00:55;9.53;;;6.80;;
13303;SDS011;6720;51.958;4.540;2023-08-06T06:03:21;10.10;;;5.87;;
13303;SDS011;6720;51.958;4.540;2023-08-06T06:05:46;9.60;;;5.23;;
13303;SDS011;6720;51.958;4.540;2023-08-06T06:08:12;8.90;;;5.47;;
13303;SDS011;6720;51.958;4.540;2023-08-06T06:10:37;7.53;;;4.03;;
13303;SDS011;6720;51.958;4.540;2023-08-06T06:13:03;10.07;;;5.10;;
13303;SDS011;6720;51.958;4.540;2023-08-06T06:15:28;9.37;;;5.10;;
13303;SDS011;6720;51.958;4.540;2023-08-06T06:17:53;9.23;;;4.40;;
13303;SDS011;6720;51.958;4.540;2023-08-06T06:20:19;7.50;;;4.10;;
13303;SDS011;6720;51.958;4.540;2023-08-06T06:22:44;8.90;;;4.13;;
13303;SDS011;6720;51.958;4.540;2023-08-06T06:25:10;8.70;;;4.27;;
13303;SDS011;6720;51.958;4.540;2023-08-06T06:27:35;7.33;;;3.93;;
13303;SDS011;6720;51.958;4.540;2023-08-06T06:30:01;7.67;;;3.60;;
13303;SDS011;6720;51.958;4.540;2023-08-06T06:32:26;6.40;;;3.93;;
13303;SDS011;6720;51.958;4.540;2023-08-06T06:34:52;7.70;;;3.27;;
13303;SDS011;6720;51.958;4.540;2023-08-06T06:37:17;7.73;;;3.67;;
13303;SDS011;6720;51.958;4.540;2023-08-06T06:39:43;5.43;;;2.73;;
13303;SDS011;6720;51.958;4.540;2023-08-06T06:42:09;5.47;;;3.37;;
13303;SDS011;6720;51.958;4.540;2023-08-06T06:44:35;5.10;;;2.87;;
13303;SDS011;6720;51.958;4.540;2023-08-06T06:47:00;6.13;;;3.47;;
13303;SDS011;6720;51.958;4.540;2023-08-06T06:49:26;4.73;;;2.53;;
13303;SDS011;6720;51.958;4.540;2023-08-06T06:51:51;4.80;;;3.23;;
13303;SDS011;6720;51.958;4.540;2023-08-06T06:54:16;5.27;;;3.47;;
13303;SDS011;6720;51.958;4.540;2023-08-06T06:56:42;6.47;;;3.30;;
13303;SDS011;6720;51.958;4.540;2023-08-06T06:59:07;6.10;;;3.10;;
13303;SDS011;6720;51.958;4.540;2023-08-06T07:01:33;5.67;;;3.27;;
13303;SDS011;6720;51.958;4.540;2023-08-06T07:03:58;5.63;;;3.70;;
13303;SDS011;6720;51.958;4.540;2023-08-06T07:06:23;4.97;;;3.50;;
13303;SDS011;6720;51.958;4.540;2023-08-06T07:08:49;5.97;;;3.07;;
13303;SDS011;6720;51.958;4.540;2023-08-06T07:11:14;6.30;;;3.50;;
13303;SDS011;6720;51.958;4.540;2023-08-06T07:13:41;4.60;;;3.17;;
13303;SDS011;6720;51.958;4.540;2023-08-06T07:16:08;5.83;;;3.20;;
13303;SDS011;6720;51.958;4.540;2023-08-06T07:18:33;8.00;;;5.53;;
13303;SDS011;6720;51.958;4.540;2023-08-06T07:20:59;7.07;;;3.60;;
13303;SDS011;6720;51.958;4.540;2023-08-06T07:23:27;4.27;;;3.30;;
13303;SDS011;6720;51.958;4.540;2023-08-06T07:25:52;7.43;;;3.90;;
13303;SDS011;6720;51.958;4.540;2023-08-06T07:28:18;4.33;;;3.60;;
13303;SDS011;6720;51.958;4.540;2023-08-06T07:30:44;8.27;;;3.63;;
13303;SDS011;6720;51.958;4.540;2023-08-06T07:33:12;6.83;;;5.07;;
13303;SDS011;6720;51.958;4.540;2023-08-06T07:35:37;8.63;;;4.30;;
13303;SDS011;6720;51.958;4.540;2023-08-06T07:38:03;7.87;;;4.10;;
13303;SDS011;6720;51.958;4.540;2023-08-06T07:40:29;7.53;;;5.77;;
13303;SDS011;6720;51.958;4.540;2023-08-06T07:42:56;8.00;;;4.63;;
13303;SDS011;6720;51.958;4.540;2023-08-06T07:45:22;5.03;;;3.43;;
13303;SDS011;6720;51.958;4.540;2023-08-06T07:47:47;8.67;;;5.13;;
13303;SDS011;6720;51.958;4.540;2023-08-06T07:50:13;6.50;;;3.90;;
13303;SDS011;6720;51.958;4.540;2023-08-06T07:52:38;5.73;;;4.57;;
13303;SDS011;6720;51.958;4.540;2023-08-06T07:55:04;6.50;;;4.20;;
13303;SDS011;6720;51.958;4.540;2023-08-06T07:57:32;9.03;;;5.27;;
13303;SDS011;6720;51.958;4.540;2023-08-06T07:59:59;5.70;;;3.40;;
13303;SDS011;6720;51.958;4.540;2023-08-06T08:02:25;4.93;;;3.33;;
13303;SDS011;6720;51.958;4.540;2023-08-06T08:04:51;4.80;;;4.13;;
13303;SDS011;6720;51.958;4.540;2023-08-06T08:07:21;4.67;;;3.30;;
13303;SDS011;6720;51.958;4.540;2023-08-06T08:09:46;3.90;;;3.33;;
13303;SDS011;6720;51.958;4.540;2023-08-06T08:12:13;8.33;;;5.40;;
13303;SDS011;6720;51.958;4.540;2023-08-06T08:14:39;4.83;;;3.80;;
13303;SDS011;6720;51.958;4.540;2023-08-06T08:17:05;5.70;;;4.40;;
13303;SDS011;6720;51.958;4.540;2023-08-06T08:19:31;6.33;;;4.50;;
13303;SDS011;6720;51.958;4.540;2023-08-06T08:21:57;5.67;;;4.33;;
13303;SDS011;6720;51.958;4.540;2023-08-06T08:24:23;4.70;;;3.90;;
13303;SDS011;6720;51.958;4.540;2023-08-06T08:26:52;4.50;;;3.50;;
13303;SDS011;6720;51.958;4.540;2023-08-06T08:29:19;6.93;;;3.60;;
13303;SDS011;6720;51.958;4.540;2023-08-06T08:31:45;7.67;;;5.90;;
13303;SDS011;6720;51.958;4.540;2023-08-06T08:34:14;5.93;;;4.27;;
13303;SDS011;6720;51.958;4.540;2023-08-06T08:36:40;5.70;;;3.30;;
13303;SDS011;6720;51.958;4.540;2023-08-06T08:39:05;3.73;;;3.30;;
13303;SDS011;6720;51.958;4.540;2023-08-06T08:41:31;7.03;;;3.67;;
13303;SDS011;6720;51.958;4.540;2023-08-06T08:43:58;5.87;;;4.17;;
13303;SDS011;6720;51.958;4.540;2023-08-06T08:46:27;7.13;;;5.37;;
13303;SDS011;6720;51.958;4.540;2023-08-06T08:48:55;6.30;;;3.93;;
13303;SDS011;6720;51.958;4.540;2023-08-06T08:51:23;5.93;;;3.80;;
13303;SDS011;6720;51.958;4.540;2023-08-06T08:53:48;5.20;;;3.67;;
13303;SDS011;6720;51.958;4.540;2023-08-06T08:56:16;5.57;;;3.80;;
13303;SDS011;6720;51.958;4.540;2023-08-06T08:58:43;4.30;;;3.50;;
13303;SDS011;6720;51.958;4.540;2023-08-06T09:01:08;5.17;;;3.03;;
13303;SDS011;6720;51.958;4.540;2023-08-06T09:03:34;5.10;;;3.30;;
13303;SDS011;6720;51.958;4.540;2023-08-06T09:06:01;3.83;;;3.30;;
13303;SDS011;6720;51.958;4.540;2023-08-06T09:08:27;6.67;;;4.23;;
13303;SDS011;6720;51.958;4.540;2023-08-06T09:11:02;6.30;;;3.67;;
13303;SDS011;6720;51.958;4.540;2023-08-06T09:13:30;5.87;;;3.57;;
13303;SDS011;6720;51.958;4.540;2023-08-06T09:15:56;6.03;;;3.27;;
13303;SDS011;6720;51.958;4.540;2023-08-06T09:18:25;3.50;;;3.20;;
13303;SDS011;6720;51.958;4.540;2023-08-06T09:20:52;3.93;;;2.53;;
13303;SDS011;6720;51.958;4.540;2023-08-06T09:23:18;5.40;;;3.20;;
13303;SDS011;6720;51.958;4.540;2023-08-06T09:25:47;3.23;;;2.57;;
13303;SDS011;6720;51.958;4.540;2023-08-06T09:28:12;5.13;;;2.87;;
13303;SDS011;6720;51.958;4.540;2023-08-06T09:30:38;3.83;;;3.37;;
13303;SDS011;6720;51.958;4.540;2023-08-06T09:33:07;3.67;;;2.60;;
13303;SDS011;6720;51.958;4.540;2023-08-06T09:35:39;5.70;;;3.87;;
13303;SDS011;6720;51.958;4.540;2023-08-06T09:38:08;3.20;;;2.43;;
13303;SDS011;6720;51.958;4.540;2023-08-06T09:40:35;3.17;;;2.87;;
13303;SDS011;6720;51.958;4.540;2023-08-06T09:43:01;5.73;;;4.93;;
13303;SDS011;6720;51.958;4.540;2023-08-06T09:45:31;24.20;;;18.97;;
13303;SDS011;6720;51.958;4.540;2023-08-06T09:47:58;34.23;;;28.93;;
13303;SDS011;6720;51.958;4.540;2023-08-06T09:50:28;12.87;;;10.00;;
13303;SDS011;6720;51.958;4.540;2023-08-06T09:52:58;9.67;;;6.87;;
13303;SDS011;6720;51.958;4.540;2023-08-06T09:55:26;9.30;;;6.63;;
13303;SDS011;6720;51.958;4.540;2023-08-06T09:57:51;10.53;;;9.43;;
13303;SDS011;6720;51.958;4.540;2023-08-06T10:00:17;6.67;;;4.80;;
13303;SDS011;6720;51.958;4.540;2023-08-06T10:02:43;8.60;;;5.77;;
13303;SDS011;6720;51.958;4.540;2023-08-06T10:05:10;12.83;;;9.50;;
13303;SDS011;6720;51.958;4.540;2023-08-06T10:07:35;6.93;;;4.33;;
13303;SDS011;6720;51.958;4.540;2023-08-06T10:10:04;6.33;;;5.50;;
13303;SDS011;6720;51.958;4.540;2023-08-06T10:12:32;7.00;;;6.23;;
13303;SDS011;6720;51.958;4.540;2023-08-06T10:15:01;7.53;;;5.73;;
13303;SDS011;6720;51.958;4.540;2023-08-06T10:17:29;2.70;;;2.20;;
13303;SDS011;6720;51.958;4.540;2023-08-06T10:19:56;3.00;;;2.70;;
13303;SDS011;6720;51.958;4.540;2023-08-06T10:22:23;6.83;;;4.23;;
13303;SDS011;6720;51.958;4.540;2023-08-06T10:27:22;12.07;;;9.27;;
13303;SDS011;6720;51.958;4.540;2023-08-06T10:29:55;5.07;;;3.90;;
13303;SDS011;6720;51.958;4.540;2023-08-06T10:32:20;4.73;;;3.23;;
13303;SDS011;6720;51.958;4.540;2023-08-06T10:34:53;3.73;;;3.23;;
13303;SDS011;6720;51.958;4.540;2023-08-06T10:37:23;3.70;;;3.37;;
13303;SDS011;6720;51.958;4.540;2023-08-06T10:39:59;5.13;;;4.60;;
13303;SDS011;6720;51.958;4.540;2023-08-06T10:42:28;4.80;;;3.57;;
13303;SDS011;6720;51.958;4.540;2023-08-06T10:45:14;7.07;;;5.90;;
13303;SDS011;6720;51.958;4.540;2023-08-06T10:47:41;6.40;;;5.23;;
13303;SDS011;6720;51.958;4.540;2023-08-06T10:50:10;4.80;;;4.10;;
13303;SDS011;6720;51.958;4.540;2023-08-06T10:52:41;6.57;;;3.70;;
13303;SDS011;6720;51.958;4.540;2023-08-06T10:55:07;6.07;;;4.57;;
13303;SDS011;6720;51.958;4.540;2023-08-06T10:57:34;5.50;;;4.30;;
13303;SDS011;6720;51.958;4.540;2023-08-06T10:59:59;4.37;;;3.40;;
13303;SDS011;6720;51.958;4.540;2023-08-06T11:02:25;5.07;;;3.07;;
13303;SDS011;6720;51.958;4.540;2023-08-06T11:04:50;12.80;;;7.97;;
13303;SDS011;6720;51.958;4.540;2023-08-06T11:07:16;5.20;;;4.60;;
13303;SDS011;6720;51.958;4.540;2023-08-06T11:09:41;5.20;;;4.63;;
13303;SDS011;6720;51.958;4.540;2023-08-06T11:12:17;4.23;;;3.53;;
13303;SDS011;6720;51.958;4.540;2023-08-06T11:14:59;3.77;;;2.30;;
13303;SDS011;6720;51.958;4.540;2023-08-06T11:17:34;7.93;;;7.13;;
13303;SDS011;6720;51.958;4.540;2023-08-06T11:20:04;14.97;;;8.43;;
13303;SDS011;6720;51.958;4.540;2023-08-06T11:22:30;7.10;;;5.40;;
13303;SDS011;6720;51.958;4.540;2023-08-06T11:24:56;2.77;;;1.93;;
13303;SDS011;6720;51.958;4.540;2023-08-06T11:27:22;6.17;;;4.70;;
13303;SDS011;6720;51.958;4.540;2023-08-06T11:29:47;7.27;;;5.83;;
13303;SDS011;6720;51.958;4.540;2023-08-06T11:32:13;2.60;;;2.07;;
13303;SDS011;6720;51.958;4.540;2023-08-06T11:34:39;5.37;;;4.27;;
13303;SDS011;6720;51.958;4.540;2023-08-06T11:37:06;6.57;;;5.27;;
13303;SDS011;6720;51.958;4.540;2023-08-06T11:39:35;4.37;;;2.87;;
13303;SDS011;6720;51.958;4.540;2023-08-06T11:42:05;8.20;;;6.00;;
13303;SDS011;6720;51.958;4.540;2023-08-06T11:44:32;2.67;;;2.33;;
13303;SDS011;6720;51.958;4.540;2023-08-06T11:46:59;3.00;;;2.10;;
13303;SDS011;6720;51.958;4.540;2023-08-06T11:49:48;2.53;;;2.33;;
13303;SDS011;6720;51.958;4.540;2023-08-06T11:52:18;3.13;;;2.10;;
13303;SDS011;6720;51.958;4.540;2023-08-06T11:55:09;14.83;;;11.67;;
13303;SDS011;6720;51.958;4.540;2023-08-06T11:57:43;4.50;;;2.20;;
13303;SDS011;6720;51.958;4.540;2023-08-06T12:00:13;4.33;;;2.50;;
13303;SDS011;6720;51.958;4.540;2023-08-06T12:02:39;5.23;;;2.67;;
13303;SDS011;6720;51.958;4.540;2023-08-06T12:07:39;9.60;;;7.63;;
13303;SDS011;6720;51.958;4.540;2023-08-06T12:10:06;4.87;;;3.17;;
13303;SDS011;6720;51.958;4.540;2023-08-06T12:12:32;3.00;;;1.80;;
13303;SDS011;6720;51.958;4.540;2023-08-06T12:14:58;1.90;;;1.67;;
13303;SDS011;6720;51.958;4.540;2023-08-06T12:17:24;4.23;;;2.67;;
13303;SDS011;6720;51.958;4.540;2023-08-06T12:19:50;4.67;;;3.60;;
13303;SDS011;6720;51.958;4.540;2023-08-06T12:22:17;4.30;;;3.13;;
13303;SDS011;6720;51.958;4.540;2023-08-06T12:24:44;4.37;;;3.43;;
13303;SDS011;6720;51.958;4.540;2023-08-06T12:27:10;6.30;;;5.40;;
13303;SDS011;6720;51.958;4.540;2023-08-06T12:29:43;10.03;;;6.77;;
13303;SDS011;6720;51.958;4.540;2023-08-06T12:32:10;6.10;;;5.37;;
13303;SDS011;6720;51.958;4.540;2023-08-06T12:34:46;5.77;;;4.40;;
13303;SDS011;6720;51.958;4.540;2023-08-06T12:37:19;9.43;;;5.57;;
13303;SDS011;6720;51.958;4.540;2023-08-06T12:39:45;6.47;;;4.30;;
13303;SDS011;6720;51.958;4.540;2023-08-06T12:42:10;4.17;;;3.43;;
13303;SDS011;6720;51.958;4.540;2023-08-06T12:44:36;8.20;;;5.60;;
13303;SDS011;6720;51.958;4.540;2023-08-06T12:47:01;4.67;;;2.17;;
13303;SDS011;6720;51.958;4.540;2023-08-06T12:49:27;3.60;;;2.10;;
13303;SDS011;6720;51.958;4.540;2023-08-06T12:51:53;7.07;;;5.17;;
13303;SDS011;6720;51.958;4.540;2023-08-06T12:54:20;3.77;;;2.90;;
13303;SDS011;6720;51.958;4.540;2023-08-06T12:56:46;4.03;;;3.50;;
13303;SDS011;6720;51.958;4.540;2023-08-06T12:59:13;4.70;;;2.70;;
13303;SDS011;6720;51.958;4.540;2023-08-06T13:01:40;7.23;;;3.97;;
13303;SDS011;6720;51.958;4.540;2023-08-06T13:04:06;3.53;;;2.33;;
13303;SDS011;6720;51.958;4.540;2023-08-06T13:06:31;4.40;;;2.30;;
13303;SDS011;6720;51.958;4.540;2023-08-06T13:09:04;3.03;;;1.40;;
13303;SDS011;6720;51.958;4.540;2023-08-06T13:11:33;2.33;;;1.53;;
13303;SDS011;6720;51.958;4.540;2023-08-06T13:16:35;3.43;;;2.00;;
13303;SDS011;6720;51.958;4.540;2023-08-06T13:19:02;1.30;;;1.20;;
13303;SDS011;6720;51.958;4.540;2023-08-06T13:21:32;2.83;;;1.30;;
13303;SDS011;6720;51.958;4.540;2023-08-06T13:24:00;5.70;;;2.17;;
13303;SDS011;6720;51.958;4.540;2023-08-06T13:26:28;1.30;;;1.20;;
13303;SDS011;6720;51.958;4.540;2023-08-06T13:28:54;19.97;;;6.17;;
13303;SDS011;6720;51.958;4.540;2023-08-06T13:31:20;65.67;;;22.50;;
13303;SDS011;6720;51.958;4.540;2023-08-06T13:33:45;92.60;;;33.50;;
13303;SDS011;6720;51.958;4.540;2023-08-06T13:36:13;6.63;;;3.47;;
13303;SDS011;6720;51.958;4.540;2023-08-06T13:38:38;3.70;;;1.83;;
13303;SDS011;6720;51.958;4.540;2023-08-06T13:41:04;5.00;;;1.83;;
13303;SDS011;6720;51.958;4.540;2023-08-06T13:43:30;7.43;;;2.70;;
13303;SDS011;6720;51.958;4.540;2023-08-06T13:45:56;4.73;;;1.97;;
13303;SDS011;6720;51.958;4.540;2023-08-06T13:48:21;9.47;;;3.03;;
13303;SDS011;6720;51.958;4.540;2023-08-06T13:50:46;9.10;;;4.33;;
13303;SDS011;6720;51.958;4.540;2023-08-06T13:53:12;10.27;;;5.60;;
13303;SDS011;6720;51.958;4.540;2023-08-06T13:55:37;9.83;;;5.00;;
13303;SDS011;6720;51.958;4.540;2023-08-06T13:58:03;6.73;;;2.73;;
13303;SDS011;6720;51.958;4.540;2023-08-06T14:00:28;8.37;;;3.53;;
13303;SDS011;6720;51.958;4.540;2023-08-06T14:02:55;6.03;;;2.80;;
13303;SDS011;6720;51.958;4.540;2023-08-06T14:05:20;10.80;;;6.50;;
13303;SDS011;6720;51.958;4.540;2023-08-06T14:07:47;6.60;;;2.30;;
13303;SDS011;6720;51.958;4.540;2023-08-06T14:10:13;8.83;;;4.97;;
13303;SDS011;6720;51.958;4.540;2023-08-06T14:12:39;10.73;;;4.43;;
13303;SDS011;6720;51.958;4.540;2023-08-06T14:15:05;5.83;;;3.23;;
13303;SDS011;6720;51.958;4.540;2023-08-06T14:17:31;6.90;;;2.13;;
13303;SDS011;6720;51.958;4.540;2023-08-06T14:19:56;6.10;;;3.67;;
13303;SDS011;6720;51.958;4.540;2023-08-06T14:22:22;7.37;;;3.40;;
13303;SDS011;6720;51.958;4.540;2023-08-06T14:24:47;4.70;;;2.77;;
13303;SDS011;6720;51.958;4.540;2023-08-06T14:27:13;7.97;;;5.23;;
13303;SDS011;6720;51.958;4.540;2023-08-06T14:29:38;4.07;;;1.93;;
13303;SDS011;6720;51.958;4.540;2023-08-06T14:32:04;6.63;;;2.03;;
13303;SDS011;6720;51.958;4.540;2023-08-06T14:34:41;7.40;;;3.07;;
13303;SDS011;6720;51.958;4.540;2023-08-06T14:37:15;8.83;;;4.43;;
13303;SDS011;6720;51.958;4.540;2023-08-06T14:39:40;8.60;;;3.60;;
13303;SDS011;6720;51.958;4.540;2023-08-06T14:42:06;11.73;;;6.27;;
13303;SDS011;6720;51.958;4.540;2023-08-06T14:44:31;7.07;;;4.33;;
13303;SDS011;6720;51.958;4.540;2023-08-06T14:46:57;12.23;;;7.80;;
13303;SDS011;6720;51.958;4.540;2023-08-06T14:49:23;5.97;;;3.10;;
13303;SDS011;6720;51.958;4.540;2023-08-06T14:51:48;9.93;;;3.30;;
13303;SDS011;6720;51.958;4.540;2023-08-06T14:54:14;9.53;;;4.80;;
13303;SDS011;6720;51.958;4.540;2023-08-06T14:56:40;11.93;;;5.07;;
13303;SDS011;6720;51.958;4.540;2023-08-06T14:59:06;6.57;;;3.73;;
13303;SDS011;6720;51.958;4.540;2023-08-06T15:01:32;8.03;;;3.60;;
13303;SDS011;6720;51.958;4.540;2023-08-06T15:03:58;5.07;;;2.00;;
13303;SDS011;6720;51.958;4.540;2023-08-06T15:06:23;7.20;;;2.30;;
13303;SDS011;6720;51.958;4.540;2023-08-06T15:08:49;10.03;;;2.97;;